DMKAT EDSB-EDSB
Flight info
| Callsign | DMKAT |
|---|---|
| Flight time | 0h 20m |
| Altitude | 3000 |
| Route | /VFR TEST FLIGHT SOME PATTERNWORK NEW JOYTICK TEST OFFLINE WENT FINE |
| Aircraft | PA28/L-VGDW/C |
Departure
| Time | 2026-05-08 19:19 |
|---|---|
| Airport | Karlsruhe Baden-Baden Airport (EDSB) |
Arrival
| Time | 2026-05-08 19:39 |
|---|---|
| Airport | Karlsruhe Baden-Baden Airport (EDSB) |
| Time | Latitude | Longitude | Altitude | Speed | Heading |
|---|---|---|---|---|---|
| 2026-05-08 19:11 | 48.77921 | 8.08672 | 410 ft | 0 kts | 5° |
| 2026-05-08 19:14 | 48.77942 | 8.08651 | 410 ft | 15 kts | 282° |
| 2026-05-08 19:14 | 48.77867 | 8.08538 | 410 ft | 12 kts | 207° |
| 2026-05-08 19:14 | 48.77850 | 8.08525 | 411 ft | 0 kts | 212° |
| 2026-05-08 19:15 | 48.77807 | 8.08483 | 411 ft | 15 kts | 210° |
| 2026-05-08 19:15 | 48.77748 | 8.08362 | 411 ft | 16 kts | 283° |
| 2026-05-08 19:15 | 48.77800 | 8.08231 | 411 ft | 14 kts | 301° |
| 2026-05-08 19:16 | 48.77843 | 8.08127 | 410 ft | 0 kts | 301° |
| 2026-05-08 19:17 | 48.77850 | 8.08110 | 417 ft | 14 kts | 302° |
| 2026-05-08 19:18 | 48.77930 | 8.08048 | 418 ft | 21 kts | 24° |
| 2026-05-08 19:18 | 48.78217 | 8.08317 | 445 ft | 70 kts | 32° |
| 2026-05-08 19:18 | 48.78674 | 8.08723 | 716 ft | 69 kts | 32° |
| 2026-05-08 19:18 | 48.79158 | 8.09069 | 941 ft | 83 kts | 13° |
| 2026-05-08 19:19 | 48.79711 | 8.08873 | 1211 ft | 96 kts | 328° |
| 2026-05-08 19:19 | 48.80049 | 8.07964 | 1443 ft | 102 kts | 276° |
| 2026-05-08 19:19 | 48.79680 | 8.07198 | 1542 ft | 95 kts | 212° |
| 2026-05-08 19:19 | 48.79118 | 8.06614 | 1554 ft | 103 kts | 219° |
| 2026-05-08 19:20 | 48.78764 | 8.06146 | 1630 ft | 99 kts | 223° |
| 2026-05-08 19:20 | 48.78433 | 8.05645 | 1596 ft | 107 kts | 226° |
| 2026-05-08 19:20 | 48.77467 | 8.04403 | 1544 ft | 103 kts | 205° |
| 2026-05-08 19:20 | 48.76794 | 8.04315 | 1505 ft | 94 kts | 164° |
| 2026-05-08 19:21 | 48.76182 | 8.04664 | 1335 ft | 97 kts | 155° |
| 2026-05-08 19:21 | 48.75808 | 8.05363 | 1125 ft | 89 kts | 82° |
| 2026-05-08 19:21 | 48.76043 | 8.06213 | 786 ft | 88 kts | 46° |
| 2026-05-08 19:21 | 48.76516 | 8.06710 | 525 ft | 78 kts | 27° |
| 2026-05-08 19:22 | 48.76940 | 8.07101 | 421 ft | 64 kts | 28° |
| 2026-05-08 19:22 | 48.77277 | 8.07423 | 410 ft | 55 kts | 30° |
| 2026-05-08 19:22 | 48.77669 | 8.07805 | 496 ft | 79 kts | 32° |
| 2026-05-08 19:22 | 48.78143 | 8.08308 | 724 ft | 89 kts | 34° |
| 2026-05-08 19:23 | 48.78678 | 8.08839 | 923 ft | 96 kts | 28° |
| 2026-05-08 19:23 | 48.79319 | 8.09039 | 1302 ft | 101 kts | 328° |
| 2026-05-08 19:23 | 48.79806 | 8.08138 | 1426 ft | 105 kts | 306° |
| 2026-05-08 19:23 | 48.79643 | 8.07242 | 1483 ft | 99 kts | 218° |
| 2026-05-08 19:24 | 48.79066 | 8.06631 | 1441 ft | 101 kts | 215° |
| 2026-05-08 19:24 | 48.78524 | 8.06032 | 1503 ft | 91 kts | 218° |
| 2026-05-08 19:24 | 48.78038 | 8.05371 | 1459 ft | 95 kts | 224° |
| 2026-05-08 19:24 | 48.77528 | 8.04634 | 1468 ft | 107 kts | 225° |
| 2026-05-08 19:25 | 48.76956 | 8.03817 | 1396 ft | 113 kts | 220° |
| 2026-05-08 19:25 | 48.76334 | 8.03428 | 1416 ft | 93 kts | 166° |
| 2026-05-08 19:25 | 48.75793 | 8.03879 | 1307 ft | 85 kts | 130° |
| 2026-05-08 19:25 | 48.75577 | 8.04635 | 1127 ft | 80 kts | 88° |
| 2026-05-08 19:26 | 48.75646 | 8.05418 | 979 ft | 74 kts | 62° |
| 2026-05-08 19:26 | 48.75893 | 8.06058 | 779 ft | 77 kts | 43° |
| 2026-05-08 19:26 | 48.76346 | 8.06592 | 681 ft | 80 kts | 26° |
| 2026-05-08 19:26 | 48.76809 | 8.06996 | 469 ft | 74 kts | 31° |
| 2026-05-08 19:27 | 48.77191 | 8.07349 | 412 ft | 54 kts | 30° |
| 2026-05-08 19:27 | 48.77517 | 8.07648 | 420 ft | 71 kts | 32° |
| 2026-05-08 19:27 | 48.77948 | 8.08084 | 678 ft | 79 kts | 31° |
| 2026-05-08 19:27 | 48.78425 | 8.08545 | 975 ft | 82 kts | 40° |
| 2026-05-08 19:28 | 48.78655 | 8.09321 | 1314 ft | 88 kts | 95° |
| 2026-05-08 19:28 | 48.78306 | 8.10129 | 1656 ft | 92 kts | 133° |
| 2026-05-08 19:28 | 48.77759 | 8.10581 | 1763 ft | 96 kts | 167° |
| 2026-05-08 19:28 | 48.77080 | 8.10345 | 1665 ft | 106 kts | 212° |
| 2026-05-08 19:29 | 48.76517 | 8.09592 | 1643 ft | 110 kts | 232° |
| 2026-05-08 19:29 | 48.76006 | 8.08753 | 1628 ft | 105 kts | 227° |
| 2026-05-08 19:29 | 48.75524 | 8.07897 | 1597 ft | 105 kts | 232° |
| 2026-05-08 19:29 | 48.75288 | 8.06937 | 1534 ft | 96 kts | 279° |
| 2026-05-08 19:30 | 48.75573 | 8.05984 | 1311 ft | 97 kts | 328° |
| 2026-05-08 19:30 | 48.75966 | 8.05884 | 1127 ft | 87 kts | 24° |
| 2026-05-08 19:30 | 48.76440 | 8.06583 | 694 ft | 102 kts | 39° |
| 2026-05-08 19:30 | 48.77002 | 8.07170 | 434 ft | 92 kts | 28° |
| 2026-05-08 19:31 | 48.77476 | 8.07613 | 411 ft | 70 kts | 28° |
| 2026-05-08 19:31 | 48.77931 | 8.08038 | 559 ft | 86 kts | 32° |
| 2026-05-08 19:31 | 48.78377 | 8.08620 | 888 ft | 87 kts | 56° |
| 2026-05-08 19:31 | 48.78448 | 8.09528 | 1324 ft | 83 kts | 102° |
| 2026-05-08 19:32 | 48.78057 | 8.10244 | 1675 ft | 97 kts | 144° |
| 2026-05-08 19:32 | 48.77357 | 8.10643 | 1733 ft | 115 kts | 162° |
| 2026-05-08 19:32 | 48.76644 | 8.10400 | 1646 ft | 105 kts | 219° |
| 2026-05-08 19:32 | 48.76178 | 8.09652 | 1577 ft | 92 kts | 229° |
| 2026-05-08 19:33 | 48.75750 | 8.08975 | 1466 ft | 81 kts | 225° |
| 2026-05-08 19:33 | 48.75313 | 8.08329 | 1289 ft | 91 kts | 228° |
| 2026-05-08 19:33 | 48.74905 | 8.07602 | 1208 ft | 92 kts | 247° |
| 2026-05-08 19:33 | 48.74846 | 8.06711 | 1069 ft | 82 kts | 296° |
| 2026-05-08 19:34 | 48.75201 | 8.06226 | 978 ft | 69 kts | 0° |
| 2026-05-08 19:34 | 48.75677 | 8.06149 | 873 ft | 65 kts | 355° |
| 2026-05-08 19:34 | 48.76096 | 8.06260 | 778 ft | 72 kts | 28° |
| 2026-05-08 19:34 | 48.76525 | 8.06710 | 585 ft | 80 kts | 33° |
| 2026-05-08 19:35 | 48.76977 | 8.07142 | 424 ft | 70 kts | 30° |
| 2026-05-08 19:35 | 48.77334 | 8.07486 | 412 ft | 52 kts | 30° |
| 2026-05-08 19:35 | 48.77740 | 8.07852 | 526 ft | 78 kts | 31° |
| 2026-05-08 19:35 | 48.78211 | 8.08261 | 820 ft | 81 kts | 26° |
| 2026-05-08 19:36 | 48.78516 | 8.08908 | 1182 ft | 78 kts | 75° |
| 2026-05-08 19:36 | 48.78353 | 8.09757 | 1521 ft | 93 kts | 131° |
| 2026-05-08 19:36 | 48.77727 | 8.10181 | 1767 ft | 102 kts | 160° |
| 2026-05-08 19:36 | 48.77014 | 8.10186 | 1891 ft | 107 kts | 204° |
| 2026-05-08 19:37 | 48.76401 | 8.09426 | 1911 ft | 124 kts | 222° |
| 2026-05-08 19:37 | 48.75768 | 8.08541 | 1750 ft | 124 kts | 225° |
| 2026-05-08 19:37 | 48.75158 | 8.07678 | 1641 ft | 117 kts | 224° |
| 2026-05-08 19:37 | 48.74678 | 8.06744 | 1549 ft | 106 kts | 250° |
| 2026-05-08 19:38 | 48.74724 | 8.05780 | 1541 ft | 92 kts | 299° |
| 2026-05-08 19:38 | 48.75196 | 8.05247 | 1394 ft | 86 kts | 2° |
| 2026-05-08 19:38 | 48.75684 | 8.05716 | 1074 ft | 91 kts | 46° |
| 2026-05-08 19:38 | 48.76196 | 8.06393 | 718 ft | 95 kts | 38° |
| 2026-05-08 19:39 | 48.76734 | 8.06928 | 479 ft | 87 kts | 31° |
| 2026-05-08 19:39 | 48.77199 | 8.07350 | 415 ft | 68 kts | 30° |
| 2026-05-08 19:39 | 48.77520 | 8.07656 | 412 ft | 30 kts | 36° |
| 2026-05-08 19:39 | 48.77693 | 8.07816 | 410 ft | 39 kts | 32° |
| 2026-05-08 19:40 | 48.77849 | 8.07983 | 410 ft | 0 kts | 53° |
| 2026-05-08 19:40 | 48.77868 | 8.08018 | 410 ft | 13 kts | 68° |
| 2026-05-08 19:40 | 48.77835 | 8.08150 | 410 ft | 14 kts | 129° |
| 2026-05-08 19:40 | 48.77790 | 8.08266 | 411 ft | 12 kts | 122° |
| 2026-05-08 19:41 | 48.77726 | 8.08360 | 411 ft | 13 kts | 182° |
| 2026-05-08 19:41 | 48.77608 | 8.08263 | 411 ft | 28 kts | 212° |
| 2026-05-08 19:41 | 48.77450 | 8.08105 | 411 ft | 26 kts | 211° |
| 2026-05-08 19:41 | 48.77300 | 8.07964 | 411 ft | 25 kts | 212° |
| 2026-05-08 19:42 | 48.77167 | 8.07868 | 411 ft | 19 kts | 178° |
| 2026-05-08 19:42 | 48.77037 | 8.07861 | 411 ft | 18 kts | 185° |
| 2026-05-08 19:42 | 48.76971 | 8.07826 | 411 ft | 8 kts | 150° |
| 2026-05-08 19:42 | 48.76965 | 8.07837 | 411 ft | 0 kts | 119° |